Time;durP1;ratioP1;P1;durP2;ratioP2;P2;SDS_P1;SDS_P2;PMS_P1;PMS_P2;Temp;Humidity;BMP_temperature;BMP_pressure;BME280_temperature;BME280_humidity;BME280_pressure;Samples;Min_cycle;Max_cycle;Signal;HPM_P1;HPM_P2
2022/01/21 00:00:20;;;;;;;10.75;3.50;;;;;;;-2.75;74.59;100474.83;2237885;79;28771;-59
2022/01/21 00:03:24;;;;;;;12.47;3.37;;;;;;;-2.80;74.61;100473.01;2237856;79;27669;-58
2022/01/21 00:06:26;;;;;;;11.12;3.50;;;;;;;-2.86;74.65;100479.09;2237866;79;33971;-57
2022/01/21 00:09:27;;;;;;;7.55;2.52;;;;;;;-2.91;74.68;100480.37;2237403;78;30679;-59
2022/01/21 00:12:30;;;;;;;8.08;2.47;;;;;;;-2.96;74.70;100482.06;2237958;79;27687;-58
2022/01/21 00:15:32;;;;;;;10.85;2.77;;;;;;;-3.00;74.83;100482.92;2244923;79;29038;-58
2022/01/21 00:18:37;;;;;;;9.25;2.95;;;;;;;-3.04;74.79;100486.38;2241607;78;31845;-58
2022/01/21 00:31:40;;;;;;;9.35;3.22;;;;;;;-3.24;74.85;100505.84;2229925;79;28582;-58
2022/01/21 00:34:42;;;;;;;14.55;3.58;;;;;;;-3.28;74.83;100507.53;2243673;78;31573;-58
2022/01/21 00:37:45;;;;;;;10.20;3.02;;;;;;;-3.33;74.80;100512.28;2237464;79;33742;-62
2022/01/21 00:40:47;;;;;;;16.70;3.55;;;;;;;-3.37;74.83;100512.23;2238008;79;30269;-57
2022/01/21 00:43:49;;;;;;;8.15;3.10;;;;;;;-3.40;74.78;100517.47;2238211;79;27640;-58
2022/01/21 00:46:51;;;;;;;7.47;2.60;;;;;;;-3.45;74.79;100516.95;2238220;79;29549;-58
2022/01/21 00:49:54;;;;;;;7.45;3.12;;;;;;;-3.50;74.85;100518.21;2238446;79;32158;-58
2022/01/21 00:52:55;;;;;;;6.87;2.52;;;;;;;-3.52;74.81;100519.92;2241142;79;33026;-58
2022/01/21 00:55:57;;;;;;;9.90;2.60;;;;;;;-3.56;74.82;100528.19;2222720;79;29653;-58
2022/01/21 00:58:59;;;;;;;9.48;2.70;;;;;;;-3.57;74.83;100530.80;2231472;79;27683;-61
2022/01/21 01:02:01;;;;;;;7.75;2.62;;;;;;;-3.61;74.90;100536.41;2243474;79;29918;-58
2022/01/21 01:05:05;;;;;;;6.95;2.37;;;;;;;-3.64;74.91;100537.70;2244025;79;31799;-60
2022/01/21 01:08:08;;;;;;;10.48;3.83;;;;;;;-3.65;74.95;100546.42;2257523;77;32805;-59
2022/01/21 01:20:54;;;;;;;9.38;1.72;;;;;;;-3.72;75.00;100553.29;2274629;77;31056;-58
2022/01/21 01:27:36;;;;;;;7.37;2.02;;;;;;;-3.74;75.00;100563.30;2277246;77;33327;-65
2022/01/21 01:30:31;;;;;;;6.50;2.12;;;;;;;-3.79;75.02;100568.89;2262459;77;27679;-60
2022/01/21 01:33:37;;;;;;;10.45;2.40;;;;;;;-3.80;75.06;100573.70;2289678;77;29812;-58
2022/01/21 01:36:38;;;;;;;9.78;2.98;;;;;;;-3.83;75.09;100578.45;2261231;77;31017;-58
2022/01/21 01:39:44;;;;;;;9.73;2.80;;;;;;;-3.84;75.02;100575.38;2247827;77;33093;-58
2022/01/21 01:49:28;;;;;;;9.43;2.20;;;;;;;-3.91;75.00;100574.42;2258935;77;28685;-58
2022/01/21 01:52:27;;;;;;;9.93;2.80;;;;;;;-3.94;74.96;100572.20;2238222;77;31396;-59
2022/01/21 01:55:29;;;;;;;8.03;2.35;;;;;;;-3.98;75.01;100574.77;2262687;77;33895;-58
2022/01/21 01:58:37;;;;;;;11.73;2.40;;;;;;;-4.00;75.01;100567.31;2284734;77;29455;-59
2022/01/21 02:01:39;;;;;;;10.78;2.65;;;;;;;-4.03;75.01;100567.27;2293111;77;27699;-58
2022/01/21 02:04:44;;;;;;;15.25;2.70;;;;;;;-4.04;74.96;100565.51;2258784;77;29441;-62
2022/01/21 02:07:46;;;;;;;13.78;2.45;;;;;;;-4.07;74.96;100566.80;2260844;77;31049;-59
2022/01/21 02:10:48;;;;;;;10.38;2.10;;;;;;;-4.08;74.97;100574.61;2234450;79;33846;-58
2022/01/21 02:13:57;;;;;;;9.13;2.80;;;;;;;-4.10;75.04;100567.16;2217918;79;29800;-58
2022/01/21 02:23:19;;;;;;;12.37;2.70;;;;;;;-4.09;75.15;100578.08;2237534;79;32225;-58
2022/01/21 02:26:21;;;;;;;9.45;2.70;;;;;;;-4.07;75.14;100585.52;2237550;79;34144;-62
2022/01/21 02:29:33;;;;;;;9.48;2.50;;;;;;;-4.06;75.19;100573.80;2199375;79;30815;-58
2022/01/21 02:32:32;;;;;;;8.63;2.90;;;;;;;-4.01;75.32;100578.64;2219182;79;28290;-59
2022/01/21 02:35:34;;;;;;;11.15;2.50;;;;;;;-3.94;75.38;100576.13;2241890;79;28656;-58
2022/01/21 02:38:36;;;;;;;14.93;1.90;;;;;;;-3.88;75.43;100577.50;2244833;79;31131;-57
2022/01/21 02:41:37;;;;;;;8.73;2.12;;;;;;;-3.83;75.38;100580.66;2244373;78;34191;-60
2022/01/21 02:44:40;;;;;;;7.50;1.85;;;;;;;-3.79;75.26;100577.64;2238108;79;29358;-60
2022/01/21 02:47:44;;;;;;;8.40;1.72;;;;;;;-3.77;75.02;100581.17;2239263;79;28401;-59
2022/01/21 02:50:46;;;;;;;6.72;2.30;;;;;;;-3.77;74.91;100594.25;2240523;79;29270;-58
2022/01/21 02:56:55;;;;;;;7.65;2.35;;;;;;;-3.82;74.83;100602.05;2237894;79;33335;-60
2022/01/21 02:59:56;;;;;;;14.40;1.95;;;;;;;-3.87;74.75;100598.48;2244655;79;29975;-58
2022/01/21 03:02:58;;;;;;;8.68;1.70;;;;;;;-3.91;74.81;100591.43;2243648;79;27710;-59
2022/01/21 03:06:01;;;;;;;7.33;1.98;;;;;;;-3.93;74.88;100590.53;2240143;79;29347;-58
2022/01/21 03:09:06;;;;;;;8.13;1.90;;;;;;;-3.96;74.90;100594.41;2213310;79;30908;-58
2022/01/21 03:12:09;;;;;;;9.55;1.87;;;;;;;-3.99;74.89;100593.08;2266256;77;32977;-58
2022/01/21 03:15:11;;;;;;;8.23;1.95;;;;;;;-4.02;74.92;100595.20;2270451;77;29232;-58
2022/01/21 03:18:13;;;;;;;9.10;1.75;;;;;;;-4.04;75.03;100596.91;2262890;77;27686;-58
2022/01/21 03:21:18;;;;;;;9.93;1.87;;;;;;;-4.05;75.08;100587.74;2265132;77;29540;-58
2022/01/21 03:24:19;;;;;;;11.30;1.95;;;;;;;-4.07;75.11;100590.34;2251533;77;31656;-58
2022/01/21 03:27:21;;;;;;;14.45;2.47;;;;;;;-4.08;75.19;100600.36;2223371;77;34268;-58
2022/01/21 03:30:23;;;;;;;8.13;1.72;;;;;;;-4.08;75.21;100612.13;2248264;77;30725;-58
2022/01/21 03:33:26;;;;;;;7.03;2.05;;;;;;;-4.07;75.34;100612.59;2261345;77;27617;-58
2022/01/21 03:36:28;;;;;;;8.33;2.22;;;;;;;-4.04;75.43;100612.61;2280658;77;28455;-58
2022/01/21 03:39:31;;;;;;;5.45;1.80;;;;;;;-4.01;75.55;100611.35;2267402;77;30973;-58
2022/01/21 03:42:33;;;;;;;14.20;2.00;;;;;;;-3.98;75.45;100617.08;2264132;77;32932;-58
2022/01/21 03:45:34;;;;;;;10.25;1.98;;;;;;;-3.97;75.45;100615.78;2275204;77;29639;-59
2022/01/21 03:48:37;;;;;;;5.25;2.58;;;;;;;-3.97;75.45;100622.33;2262962;78;27663;-58
2022/01/21 03:51:39;;;;;;;16.12;2.95;;;;;;;-3.95;75.45;100618.85;2255454;78;29422;-58
2022/01/21 03:54:40;;;;;;;6.78;2.00;;;;;;;-3.93;75.51;100624.55;2251851;79;32252;-58
2022/01/21 03:57:43;;;;;;;12.88;2.30;;;;;;;-3.89;75.62;100626.81;2252361;79;32879;-58
2022/01/21 04:00:53;;;;;;;8.55;1.98;;;;;;;-3.85;75.64;100624.25;2235434;77;30084;-58
2022/01/21 04:03:55;;;;;;;6.85;1.70;;;;;;;-3.79;75.77;100620.84;2261122;77;27686;-59
2022/01/21 04:06:57;;;;;;;8.10;2.22;;;;;;;-3.71;75.84;100626.18;2273832;77;29913;-58
2022/01/21 04:09:58;;;;;;;10.88;2.22;;;;;;;-3.66;75.88;100624.07;2252385;77;30944;-58
2022/01/21 04:13:00;;;;;;;10.60;2.05;;;;;;;-3.58;75.82;100625.92;2285655;77;33847;-58
2022/01/21 04:16:04;;;;;;;9.98;2.55;;;;;;;-3.52;75.87;100616.82;2267185;77;29267;-60
2022/01/21 04:19:06;;;;;;;5.12;1.72;;;;;;;-3.44;75.86;100614.30;2262522;77;27579;-59
2022/01/21 04:22:08;;;;;;;10.68;1.82;;;;;;;-3.39;75.79;100613.50;2243920;77;28992;-59
2022/01/21 04:25:10;;;;;;;10.50;1.85;;;;;;;-3.33;75.74;100615.34;2289148;77;32256;-58
2022/01/21 04:28:12;;;;;;;6.58;2.05;;;;;;;-3.27;75.70;100612.77;2292972;77;33534;-59
2022/01/21 04:31:15;;;;;;;16.12;2.72;;;;;;;-3.23;75.69;100609.34;2268941;77;29425;-59
2022/01/21 04:34:17;;;;;;;14.18;2.20;;;;;;;-3.17;75.66;100612.45;2273697;77;27676;-59
2022/01/21 04:37:18;;;;;;;8.25;2.35;;;;;;;-3.13;75.51;100614.67;2261295;78;29526;-59
2022/01/21 04:40:24;;;;;;;7.92;2.22;;;;;;;-3.09;75.52;100617.37;2262321;78;31143;-59
2022/01/21 04:49:58;;;;;;;7.80;2.15;;;;;;;-2.99;75.31;100606.56;2025157;87;27734;-58
2022/01/21 04:53:00;;;;;;;9.85;1.77;;;;;;;-2.96;75.20;100610.94;2024826;87;28648;-58
2022/01/21 04:56:02;;;;;;;8.70;2.00;;;;;;;-2.94;75.21;100602.67;2025098;87;32313;-59
2022/01/21 04:59:04;;;;;;;14.68;2.62;;;;;;;-2.93;75.06;100603.98;2019531;87;32912;-59
2022/01/21 05:02:07;;;;;;;11.80;2.67;;;;;;;-2.92;74.91;100609.67;1968620;90;29099;-58
2022/01/21 05:05:10;;;;;;;14.78;2.02;;;;;;;-2.91;74.86;100609.27;1935976;91;27735;-58
2022/01/21 05:08:22;;;;;;;11.53;1.92;;;;;;;-2.92;74.78;100603.13;1968851;90;29543;-59
2022/01/21 05:11:17;;;;;;;8.90;1.95;;;;;;;-2.95;74.67;100607.02;1929162;91;32402;-58
2022/01/21 05:14:22;;;;;;;14.18;2.08;;;;;;;-2.94;74.70;100603.98;1960564;90;32957;-59
2022/01/21 05:17:23;;;;;;;9.33;2.37;;;;;;;-2.94;74.67;100619.27;2053719;83;30552;-59
2022/01/21 05:20:25;;;;;;;9.08;3.02;;;;;;;-2.95;74.62;100616.64;2140844;83;27755;-59
2022/01/21 05:23:27;;;;;;;9.73;2.83;;;;;;;-2.96;74.55;100613.12;2154989;81;28728;-59
2022/01/21 05:26:36;;;;;;;7.25;2.25;;;;;;;-2.97;74.46;100619.22;2189004;79;32057;-59
2022/01/21 05:29:34;;;;;;;12.90;2.52;;;;;;;-2.96;74.48;100617.50;2239625;79;34189;-58
2022/01/21 05:32:36;;;;;;;15.03;3.45;;;;;;;-2.97;74.45;100604.80;2240569;79;30533;-58
2022/01/21 05:35:38;;;;;;;12.98;3.12;;;;;;;-2.97;74.56;100615.29;2240800;79;27645;-59
2022/01/21 05:38:40;;;;;;;7.05;2.30;;;;;;;-2.95;74.53;100616.19;2240919;79;29453;-58
2022/01/21 05:41:47;;;;;;;14.38;2.05;;;;;;;-2.92;74.55;100623.23;2241272;79;31816;-59
2022/01/21 05:47:50;;;;;;;10.48;1.98;;;;;;;-2.90;74.37;100625.44;2139766;81;29327;-59
2022/01/21 05:50:52;;;;;;;7.53;2.27;;;;;;;-2.91;74.31;100619.75;2233590;79;27715;-58
2022/01/21 05:53:53;;;;;;;8.60;2.17;;;;;;;-2.92;74.25;100630.64;2176178;81;28607;-59
2022/01/21 05:56:55;;;;;;;12.35;2.35;;;;;;;-2.92;74.34;100626.72;2205905;79;32189;-58
2022/01/21 05:59:58;;;;;;;10.98;3.40;;;;;;;-2.93;74.30;100626.71;2139630;81;33091;-59
2022/01/21 06:03:00;;;;;;;17.23;3.75;;;;;;;-2.94;74.11;100631.05;2198257;79;29814;-59
2022/01/21 06:06:02;;;;;;;12.43;3.80;;;;;;;-2.97;74.11;100623.59;2179019;81;27658;-59
2022/01/21 06:09:05;;;;;;;14.10;4.55;;;;;;;-2.98;74.08;100623.15;2202012;80;29609;-59
2022/01/21 06:12:08;;;;;;;10.43;3.22;;;;;;;-3.00;74.11;100634.05;2222503;78;30944;-59
2022/01/21 06:15:10;;;;;;;12.93;2.62;;;;;;;-3.03;74.07;100629.66;2222438;78;33805;-58
2022/01/21 06:18:12;;;;;;;8.60;2.87;;;;;;;-3.05;74.15;100629.63;2221111;80;29271;-60
2022/01/21 06:21:14;;;;;;;15.93;2.95;;;;;;;-3.06;74.12;100630.92;2226954;77;27707;-59
2022/01/21 06:24:16;;;;;;;9.38;2.37;;;;;;;-3.07;74.12;100630.48;2222204;78;29728;-59
2022/01/21 06:27:25;;;;;;;12.63;3.08;;;;;;;-3.08;74.12;100636.16;2222322;78;31826;-59
2022/01/21 06:30:22;;;;;;;15.23;3.75;;;;;;;-3.06;74.19;100627.00;2221291;80;33126;-59
2022/01/21 06:33:24;;;;;;;12.23;3.50;;;;;;;-3.06;74.13;100634.86;2222794;78;29679;-58
2022/01/21 06:36:26;;;;;;;17.32;4.37;;;;;;;-3.08;74.09;100645.75;2222435;78;27672;-59
2022/01/21 06:39:28;;;;;;;9.20;2.62;;;;;;;-3.07;74.12;100644.89;2222635;80;29351;-58
2022/01/21 06:42:30;;;;;;;12.37;3.77;;;;;;;-3.08;74.12;100646.64;2222205;80;30999;-58
2022/01/21 06:45:32;;;;;;;15.45;3.02;;;;;;;-3.05;74.18;100641.86;2222379;80;32904;-59
2022/01/21 06:48:34;;;;;;;15.80;3.72;;;;;;;-3.00;74.36;100639.28;2250588;77;29342;-58
2022/01/21 06:51:36;;;;;;;14.73;4.28;;;;;;;-2.94;74.52;100655.96;2264044;77;27708;-58
2022/01/21 06:54:38;;;;;;;10.45;3.92;;;;;;;-2.86;74.48;100644.25;2222276;80;29101;-60
2022/01/21 06:57:40;;;;;;;8.55;3.02;;;;;;;-2.77;74.57;100647.40;2222268;80;30998;-58
2022/01/21 07:00:43;;;;;;;14.68;3.40;;;;;;;-2.67;74.64;100657.55;2222442;80;33964;-58
2022/01/21 07:03:46;;;;;;;12.82;3.30;;;;;;;-2.54;74.70;100665.13;2222256;80;30682;-58
2022/01/21 07:06:49;;;;;;;18.17;4.33;;;;;;;-2.42;74.55;100677.05;2222691;80;28368;-58
2022/01/21 07:09:51;;;;;;;11.53;3.30;;;;;;;-2.30;74.67;100668.41;2218029;80;28805;-59
2022/01/21 07:12:52;;;;;;;22.15;6.03;;;;;;;-2.19;74.36;100682.95;2198634;81;31028;-60
2022/01/21 07:15:54;;;;;;;8.05;2.42;;;;;;;-2.10;74.31;100679.08;2216394;79;34170;-58
2022/01/21 07:18:56;;;;;;;14.43;2.45;;;;;;;-2.04;73.98;100672.58;2243587;79;29382;-58
2022/01/21 07:21:59;;;;;;;16.93;3.17;;;;;;;-2.02;73.61;100689.64;2213677;80;27690;-60
2022/01/21 07:25:00;;;;;;;9.68;3.65;;;;;;;-2.03;73.39;100691.41;2245147;79;29029;-59
2022/01/21 07:28:03;;;;;;;18.42;3.83;;;;;;;-2.05;73.32;100698.37;2213595;80;31819;-61
2022/01/21 07:31:04;;;;;;;11.25;3.27;;;;;;;-2.04;73.17;100696.62;2245094;79;33788;-58
2022/01/21 07:34:06;;;;;;;9.53;2.83;;;;;;;-2.06;73.08;100699.25;2241311;79;30656;-59
2022/01/21 07:37:08;;;;;;;12.93;3.12;;;;;;;-2.08;72.90;100695.72;2241583;79;27768;-59
2022/01/21 07:40:12;;;;;;;8.15;2.40;;;;;;;-2.06;72.68;100694.41;2189148;80;29590;-63
2022/01/21 07:43:14;;;;;;;11.65;3.15;;;;;;;-2.01;72.68;100697.97;2198595;79;30994;-57
2022/01/21 07:46:17;;;;;;;9.35;2.33;;;;;;;-1.93;72.71;100710.73;2157843;81;33810;-58
2022/01/21 07:49:18;;;;;;;12.37;1.77;;;;;;;-1.83;72.70;100702.50;2242984;79;29779;-58
2022/01/21 07:52:20;;;;;;;9.98;2.87;;;;;;;-1.72;72.48;100715.27;2217222;79;27527;-58
2022/01/21 07:55:23;;;;;;;12.07;4.67;;;;;;;-1.61;72.42;100713.15;2138605;83;29527;-57
2022/01/21 07:58:25;;;;;;;18.92;5.55;;;;;;;-1.48;72.36;100712.35;2197709;80;32239;-57
2022/01/21 08:01:27;;;;;;;9.95;3.70;;;;;;;-1.31;72.01;100720.36;2139491;83;34120;-61
2022/01/21 08:04:29;;;;;;;8.70;2.02;;;;;;;-1.15;71.78;100716.50;2198735;79;29742;-57
2022/01/21 08:07:31;;;;;;;15.85;3.52;;;;;;;-0.99;71.61;100710.89;2139644;83;27646;-58
2022/01/21 08:10:33;;;;;;;20.50;7.90;;;;;;;-0.83;71.60;100711.82;2205227;80;30036;-58
2022/01/21 08:13:38;;;;;;;16.75;5.70;;;;;;;-0.67;71.05;100715.40;2222029;80;32065;-58
2022/01/21 08:16:40;;;;;;;15.20;5.22;;;;;;;-0.50;71.05;100715.02;2278841;77;35203;-59
2022/01/21 08:19:42;;;;;;;11.68;4.85;;;;;;;-0.37;70.59;100715.03;2294373;77;29411;-57
2022/01/21 08:22:44;;;;;;;16.07;4.35;;;;;;;-0.35;70.56;100728.63;2295004;77;28250;-58
2022/01/21 08:25:47;;;;;;;17.67;5.65;;;;;;;-0.33;70.28;100729.97;2294755;77;29467;-57
2022/01/21 08:28:51;;;;;;;13.70;5.20;;;;;;;-0.27;70.40;100722.52;2294471;77;31623;-58
2022/01/21 08:31:54;;;;;;;15.00;5.28;;;;;;;-0.20;70.06;100734.38;2294703;77;33175;-58
2022/01/21 08:34:58;;;;;;;18.70;6.92;;;;;;;-0.14;70.12;100715.48;2294056;77;27690;-58
2022/01/21 08:38:00;;;;;;;13.15;5.28;;;;;;;-0.10;69.94;100726.47;2294917;77;27674;-58
2022/01/21 08:41:03;;;;;;;10.43;4.08;;;;;;;-0.07;69.60;100723.39;2234608;77;28703;-58
2022/01/21 08:44:05;;;;;;;10.53;4.10;;;;;;;-0.15;69.11;100733.06;2221130;80;31874;-58
2022/01/21 08:47:07;;;;;;;14.13;4.45;;;;;;;-0.21;69.37;100740.52;2269258;77;34198;-60
2022/01/21 08:50:17;;;;;;;10.20;4.03;;;;;;;-0.14;68.94;100740.08;2222423;80;30518;-58
2022/01/21 08:53:38;;;;;;;15.25;3.70;;;;;;;-0.14;68.55;100758.94;2222697;78;27720;-59
2022/01/21 08:56:48;;;;;;;19.05;5.70;;;;;;;-0.23;68.83;100762.01;2222264;78;29981;-58
2022/01/21 08:59:50;;;;;;;11.93;3.20;;;;;;;-0.29;68.03;100757.17;2221596;80;31026;-57
2022/01/21 09:02:53;;;;;;;13.60;4.08;;;;;;;-0.32;68.71;100762.86;2222012;80;33141;-58
2022/01/21 09:05:55;;;;;;;16.40;4.37;;;;;;;-0.28;68.84;100762.87;2222279;80;30477;-58
2022/01/21 09:08:58;;;;;;;11.30;3.98;;;;;;;-0.27;68.46;100766.81;2222198;78;27679;-57
2022/01/21 09:12:00;;;;;;;6.45;2.90;;;;;;;-0.34;68.26;100769.88;2239659;78;28808;-61
2022/01/21 09:15:05;;;;;;;11.33;2.67;;;;;;;-0.32;68.25;100768.55;2253911;77;30850;-57
2022/01/21 09:18:09;;;;;;;8.80;2.70;;;;;;;-0.24;68.60;100764.62;2222423;80;33799;-62
2022/01/21 09:21:19;;;;;;;9.18;2.72;;;;;;;-0.16;68.53;100766.84;2222466;78;29448;-58
2022/01/21 09:24:22;;;;;;;10.05;2.30;;;;;;;-0.04;68.72;100769.95;2220929;78;27605;-61
2022/01/21 09:27:24;;;;;;;11.00;3.25;;;;;;;0.03;67.95;100774.78;2222249;78;28753;-58
2022/01/21 09:30:27;;;;;;;9.40;3.12;;;;;;;0.11;68.14;100778.29;2221745;80;32323;-60
2022/01/21 09:33:32;;;;;;;12.55;4.00;;;;;;;0.15;67.92;100776.11;2195327;80;29490;-58
2022/01/21 09:36:34;;;;;;;10.20;2.92;;;;;;;0.22;67.82;100771.30;2249202;78;30516;-60
2022/01/21 09:39:35;;;;;;;16.67;5.15;;;;;;;0.28;67.69;100770.41;2261729;78;27660;-58
2022/01/21 09:42:38;;;;;;;13.25;4.50;;;;;;;0.33;67.61;100767.77;2262456;78;29236;-62
2022/01/21 09:45:41;;;;;;;29.25;9.90;;;;;;;0.35;67.22;100770.84;2277148;77;31117;-64
2022/01/21 09:49:06;;;;;;;18.55;5.95;;;;;;;0.37;66.91;100763.81;2291951;77;33756;-60
2022/01/21 09:52:04;;;;;;;20.37;6.92;;;;;;;0.40;66.77;100762.50;2258126;78;29545;-57
2022/01/21 09:55:07;;;;;;;22.32;8.20;;;;;;;0.43;67.03;100762.93;2261403;78;27651;-62
2022/01/21 09:58:09;;;;;;;41.08;16.80;;;;;;;0.47;66.64;100756.78;2259511;78;29357;-63
2022/01/21 10:01:13;;;;;;;18.25;8.10;;;;;;;0.51;66.57;100757.23;2259277;78;31885;-60
2022/01/21 10:04:15;;;;;;;12.25;5.80;;;;;;;0.55;66.33;100755.45;2259636;78;32988;-58
2022/01/21 10:07:21;;;;;;;8.25;3.62;;;;;;;0.64;66.78;100749.30;2275709;77;30486;-58
2022/01/21 10:10:23;;;;;;;12.90;5.65;;;;;;;0.68;65.95;100744.47;2286615;77;27700;-60
2022/01/21 10:13:26;;;;;;;8.25;3.15;;;;;;;0.74;66.08;100737.42;2224935;78;29812;-58
2022/01/21 10:16:28;;;;;;;9.25;3.75;;;;;;;0.86;66.06;100735.20;2222838;78;31879;-59
2022/01/21 10:19:33;;;;;;;6.35;2.60;;;;;;;1.00;66.00;100740.87;2206258;78;33517;-58
2022/01/21 10:22:35;;;;;;;8.75;2.20;;;;;;;1.04;65.75;100743.95;2232219;79;30507;-58
2022/01/21 10:25:40;;;;;;;8.30;3.50;;;;;;;1.00;64.70;100748.33;2232854;79;27716;-59
2022/01/21 10:28:44;;;;;;;23.35;7.15;;;;;;;0.98;65.02;100748.80;2232903;79;29501;-60
2022/01/21 10:32:04;;;;;;;21.05;7.72;;;;;;;1.01;65.25;100754.50;2239425;78;31038;-57
2022/01/21 10:35:22;;;;;;;14.85;6.60;;;;;;;0.97;65.03;100745.73;2256707;78;34031;-59
2022/01/21 10:38:30;;;;;;;38.40;17.25;;;;;;;0.87;65.14;100737.38;2283623;77;29332;-58
2022/01/21 10:41:34;;;;;;;29.18;10.50;;;;;;;0.83;65.01;100731.24;2284304;77;28211;-62
2022/01/21 10:44:58;;;;;;;19.55;5.95;;;;;;;0.83;64.84;100727.28;2242083;77;28823;-58
2022/01/21 10:48:02;;;;;;;21.87;7.75;;;;;;;0.93;64.77;100730.78;2155274;82;31854;-62
2022/01/21 10:51:26;;;;;;;17.23;8.38;;;;;;;1.08;64.76;100723.23;2222295;80;34299;-58
2022/01/21 10:54:30;;;;;;;21.73;7.33;;;;;;;1.15;64.53;100737.31;2156152;82;30125;-58
2022/01/21 10:57:32;;;;;;;20.30;6.95;;;;;;;1.17;64.58;100733.77;2251566;78;27738;-58
2022/01/21 11:00:36;;;;;;;27.27;9.83;;;;;;;1.19;64.74;100733.33;2222983;78;29062;-59
2022/01/21 11:04:05;;;;;;;23.62;7.67;;;;;;;1.23;64.50;100732.01;2189118;81;31063;-58
2022/01/21 11:07:07;;;;;;;25.23;9.63;;;;;;;1.24;64.07;100733.30;2263100;78;33786;-57
2022/01/21 11:10:09;;;;;;;27.05;8.80;;;;;;;1.25;64.03;100728.46;2263458;78;29351;-57
2022/01/21 11:13:20;;;;;;;15.58;6.72;;;;;;;1.29;64.07;100717.02;2234942;78;27727;-57
2022/01/21 11:16:24;;;;;;;78.15;21.10;;;;;;;1.28;64.00;100715.26;2237793;78;28709;-58
2022/01/21 11:19:29;;;;;;;70.60;17.77;;;;;;;1.29;64.00;100718.77;2222549;78;31882;-57
2022/01/21 11:22:30;;;;;;;27.15;7.67;;;;;;;1.40;64.35;100714.33;2222436;80;33189;-57
2022/01/21 11:25:51;;;;;;;54.88;14.05;;;;;;;1.51;64.16;100719.09;2262387;78;29923;-57
2022/01/21 11:28:54;;;;;;;57.38;15.83;;;;;;;1.64;63.90;100716.38;2230726;78;27685;-58
2022/01/21 11:32:00;;;;;;;67.40;18.12;;;;;;;1.81;64.15;100730.81;2202069;79;27727;-59
2022/01/21 11:35:02;;;;;;;;;;;;;;;1.88;63.99;100723.72;2265121;78;32235;-58
2022/01/21 11:38:08;;;;;;;50.50;15.05;;;;;;;1.89;63.35;100726.80;2262503;78;33952;-60
2022/01/21 11:41:12;;;;;;;33.25;8.35;;;;;;;1.90;63.16;100713.56;2262634;78;29378;-59
2022/01/21 11:44:14;;;;;;;57.70;15.05;;;;;;;1.92;63.45;100714.86;2262834;78;27662;-57
2022/01/21 11:47:28;;;;;;;62.00;20.68;;;;;;;1.92;62.83;100719.72;2262036;78;29472;-58
2022/01/21 11:50:21;;;;;;;53.10;17.60;;;;;;;1.92;62.95;100718.40;2260382;78;31089;-57
2022/01/21 11:53:54;;;;;;;41.45;15.72;;;;;;;2.06;63.75;100726.23;2262363;78;34141;-59
2022/01/21 11:57:02;;;;;;;44.35;17.45;;;;;;;2.24;63.41;100724.30;2230382;78;29310;-58
2022/01/21 12:00:16;;;;;;;28.90;11.63;;;;;;;2.36;63.23;100715.39;2222491;80;27708;-57
2022/01/21 12:03:10;;;;;;;31.42;12.85;;;;;;;2.41;62.86;100698.59;2221564;79;28814;-57
2022/01/21 12:06:35;;;;;;;26.65;10.80;;;;;;;2.45;63.15;100703.43;2286813;77;31703;-57
2022/01/21 12:09:55;;;;;;;32.10;13.70;;;;;;;2.49;62.86;100700.30;2268902;77;34093;-58
2022/01/21 12:13:10;;;;;;;22.85;6.87;;;;;;;2.45;62.82;100688.89;2255602;78;30727;-57
2022/01/21 12:16:24;;;;;;;18.23;6.62;;;;;;;2.39;62.78;100679.68;2262743;78;27695;-57
2022/01/21 12:19:36;;;;;;;19.15;8.20;;;;;;;2.36;62.50;100663.41;2261885;78;29921;-56
2022/01/21 12:22:37;;;;;;;20.65;5.72;;;;;;;2.35;62.69;100657.69;2262660;78;32242;-57
2022/01/21 12:26:17;;;;;;;16.17;5.50;;;;;;;2.36;62.60;100665.16;2261316;78;33859;-57
2022/01/21 12:29:22;;;;;;;12.25;5.65;;;;;;;2.31;62.64;100649.81;2259158;78;30567;-57
2022/01/21 12:32:38;;;;;;;15.50;4.80;;;;;;;2.28;62.62;100658.20;2262384;78;28221;-57
2022/01/21 12:35:34;;;;;;;14.10;4.95;;;;;;;2.18;62.22;100660.94;2188066;81;30109;-57
2022/01/21 12:41:43;;;;;;;13.85;5.15;;;;;;;1.91;62.30;100669.09;2262490;78;34094;-57
2022/01/21 12:44:42;;;;;;;;;;;;;;;1.79;62.21;100664.77;2264884;78;29391;-57
2022/01/21 12:47:47;;;;;;;11.45;4.37;;;;;;;1.65;62.22;100656.08;2262332;78;27725;-58
2022/01/21 12:50:57;;;;;;;13.60;3.87;;;;;;;1.51;62.32;100670.25;2262307;78;28687;-61
2022/01/21 12:57:30;;;;;;;13.13;4.78;;;;;;;1.39;62.82;100659.78;2275935;77;33427;-57
2022/01/21 13:00:32;;;;;;;12.30;4.50;;;;;;;1.33;62.71;100665.94;2294098;77;30253;-58
2022/01/21 13:03:59;;;;;;;8.70;3.67;;;;;;;1.43;62.90;100663.27;2268405;77;28264;-57
2022/01/21 13:07:15;;;;;;;15.78;4.30;;;;;;;1.50;62.90;100646.05;2222265;78;28940;-58
2022/01/21 13:10:29;;;;;;;17.25;5.58;;;;;;;1.57;62.96;100648.20;2221910;80;32264;-57
2022/01/21 13:13:49;;;;;;;11.93;4.47;;;;;;;1.59;62.77;100651.72;2221964;78;33099;-58
2022/01/21 13:16:40;;;;;;;11.68;3.52;;;;;;;1.69;63.23;100649.00;2219662;78;30669;-57
2022/01/21 13:19:50;;;;;;;13.90;4.75;;;;;;;1.76;63.09;100647.62;2222413;80;27697;-59
2022/01/21 13:22:52;;;;;;;11.50;5.10;;;;;;;1.84;62.77;100652.84;2222116;78;29499;-57
2022/01/21 13:25:56;;;;;;;12.60;4.30;;;;;;;1.93;62.95;100654.53;2221966;80;32406;-57
2022/01/21 13:29:07;;;;;;;14.75;4.08;;;;;;;1.99;63.13;100654.49;2230133;77;34268;-58
2022/01/21 13:32:09;;;;;;;8.78;2.77;;;;;;;2.05;62.97;100638.59;2222437;80;30175;-57
2022/01/21 13:35:18;;;;;;;11.95;4.03;;;;;;;2.07;62.87;100639.43;2222322;80;28344;-57
2022/01/21 13:38:21;;;;;;;9.73;3.15;;;;;;;2.11;62.92;100637.20;2222613;80;28754;-57
2022/01/21 13:41:23;;;;;;;12.55;3.17;;;;;;;2.13;62.73;100640.70;2222258;80;30656;-57
2022/01/21 13:44:35;;;;;;;9.48;3.35;;;;;;;2.15;62.96;100634.11;2221790;80;34216;-58
2022/01/21 13:47:41;;;;;;;10.43;3.55;;;;;;;2.16;62.65;100632.33;2217818;78;30254;-59
2022/01/21 13:50:45;;;;;;;13.50;4.87;;;;;;;2.16;62.76;100636.28;2222766;80;27636;-57
2022/01/21 13:53:48;;;;;;;14.60;6.12;;;;;;;2.13;62.69;100642.48;2222188;80;28926;-58
2022/01/21 13:56:51;;;;;;;12.78;5.15;;;;;;;2.11;62.82;100642.48;2235723;77;31401;-59
2022/01/21 13:59:53;;;;;;;13.45;3.40;;;;;;;2.06;62.49;100643.42;2293489;77;33750;-58
2022/01/21 14:03:05;;;;;;;7.28;3.08;;;;;;;2.01;62.28;100636.86;2294465;77;29677;-58
2022/01/21 14:06:16;;;;;;;11.38;3.47;;;;;;;1.95;62.01;100635.58;2293943;77;27747;-60
2022/01/21 14:09:23;;;;;;;11.85;4.42;;;;;;;1.90;62.06;100654.13;2294487;77;28814;-59
2022/01/21 14:12:25;;;;;;;20.97;11.28;;;;;;;1.87;62.10;100644.03;2283951;77;31011;-58
2022/01/21 14:15:31;;;;;;;11.28;3.90;;;;;;;1.82;62.33;100651.55;2242604;79;34192;-58
2022/01/21 14:18:39;;;;;;;13.78;4.20;;;;;;;1.79;62.01;100650.70;2217707;80;30479;-58
2022/01/21 14:21:43;;;;;;;9.58;4.22;;;;;;;1.71;62.12;100654.72;2237655;79;27612;-57
2022/01/21 14:24:48;;;;;;;8.98;2.77;;;;;;;1.62;61.96;100668.87;2149599;81;29500;-60
2022/01/21 14:27:52;;;;;;;13.72;3.90;;;;;;;1.55;62.07;100676.38;2208795;79;31031;-59
2022/01/21 14:30:54;;;;;;;12.80;4.00;;;;;;;1.49;62.29;100674.66;2139459;81;33833;-59
2022/01/21 14:33:57;;;;;;;15.13;7.35;;;;;;;1.40;62.32;100662.85;2197885;81;30693;-58
2022/01/21 14:37:12;;;;;;;13.03;4.33;;;;;;;1.30;62.16;100652.79;2139878;83;28040;-58
2022/01/21 14:40:19;;;;;;;13.00;3.47;;;;;;;1.17;62.21;100648.02;2198559;81;29479;-59
2022/01/21 14:43:25;;;;;;;14.58;3.52;;;;;;;1.05;62.07;100651.58;2138595;83;31119;-59
2022/01/21 14:46:31;;;;;;;14.83;3.72;;;;;;;0.94;62.46;100645.48;2198486;81;32955;-59
2022/01/21 14:49:34;;;;;;;15.75;5.75;;;;;;;0.85;62.59;100651.68;2139371;83;30530;-59
2022/01/21 14:52:56;;;;;;;11.70;4.47;;;;;;;0.79;62.72;100654.78;2198611;81;27638;-57
2022/01/21 14:56:00;;;;;;;14.98;4.45;;;;;;;0.71;62.76;100660.95;2139605;81;29327;-59
2022/01/21 14:59:15;;;;;;;16.35;4.72;;;;;;;0.65;62.95;100663.63;2230411;79;31710;-58
2022/01/21 15:02:27;;;;;;;13.00;4.35;;;;;;;0.60;63.21;100671.98;2139628;83;34322;-58
2022/01/21 15:05:29;;;;;;;16.02;5.05;;;;;;;0.54;63.11;100666.70;2198697;79;29492;-57
2022/01/21 15:08:40;;;;;;;21.50;8.55;;;;;;;0.48;63.24;100677.28;2139541;83;27636;-57